Time;durP1;ratioP1;P1;durP2;ratioP2;P2;SDS_P1;SDS_P2;PMS_P1;PMS_P2;Temp;Humidity;BMP_temperature;BMP_pressure;BME280_temperature;BME280_humidity;BME280_pressure;Samples;Min_cycle;Max_cycle;Signal;HPM_P1;HPM_P2
2021/03/23 04:12:20;;;;;;;0.40;0.40;;;3.30;99.90;;;;;;5088404;28;20098;-64
2021/03/23 04:14:45;;;;;;;0.43;0.30;;;3.40;99.90;;;;;;5093184;28;20043;-64
2021/03/23 04:17:11;;;;;;;0.50;0.50;;;3.40;99.90;;;;;;5093199;28;20025;-64
2021/03/23 04:19:37;;;;;;;0.45;0.45;;;3.40;99.90;;;;;;5093083;28;20524;-64
2021/03/23 04:22:02;;;;;;;0.40;0.40;;;3.40;99.90;;;;;;5093236;28;20028;-64
2021/03/23 04:24:28;;;;;;;0.40;0.40;;;3.40;99.90;;;;;;5092960;28;20095;-64
2021/03/23 04:26:54;;;;;;;0.40;0.40;;;3.50;99.90;;;;;;5093273;28;20464;-64
2021/03/23 04:29:20;;;;;;;0.40;0.40;;;3.50;99.90;;;;;;5092584;28;20758;-64
2021/03/23 04:31:45;;;;;;;0.55;0.50;;;3.50;99.90;;;;;;5093156;28;20042;-64
2021/03/23 04:34:14;;;;;;;0.45;0.43;;;3.50;99.90;;;;;;5092572;28;20028;-64
2021/03/23 04:36:41;;;;;;;0.50;0.50;;;3.50;99.90;;;;;;5078266;28;20499;-65
2021/03/23 04:39:10;;;;;;;1.08;0.40;;;3.50;99.90;;;;;;5093148;28;20433;-65
2021/03/23 04:41:37;;;;;;;0.60;0.45;;;3.50;99.90;;;;;;5092624;28;20186;-65
2021/03/23 04:44:03;;;;;;;0.50;0.50;;;3.50;99.90;;;;;;5092969;28;20385;-66
2021/03/23 04:46:29;;;;;;;0.38;0.38;;;3.50;99.90;;;;;;5092457;28;20024;-64
2021/03/23 04:48:56;;;;;;;0.40;0.40;;;3.50;99.90;;;;;;5092641;28;20028;-65
2021/03/23 04:51:25;;;;;;;0.47;0.47;;;3.60;99.90;;;;;;5092444;28;20514;-65
2021/03/23 04:54:02;;;;;;;0.50;0.50;;;3.60;99.90;;;;;;5092694;28;20024;-64
2021/03/23 04:56:31;;;;;;;0.50;0.50;;;3.60;99.90;;;;;;5092300;28;20025;-65
2021/03/23 04:58:57;;;;;;;0.50;0.50;;;3.70;99.90;;;;;;5092175;28;20024;-64
2021/03/23 05:01:23;;;;;;;0.70;0.40;;;3.70;99.90;;;;;;5092220;28;20032;-64
2021/03/23 05:04:12;;;;;;;0.50;0.50;;;3.70;99.90;;;;;;5092019;28;20111;-65
2021/03/23 05:06:37;;;;;;;0.50;0.50;;;3.70;99.90;;;;;;5092265;28;20028;-64
2021/03/23 05:09:03;;;;;;;0.60;0.50;;;3.70;99.90;;;;;;5091942;28;20034;-64
2021/03/23 05:11:30;;;;;;;0.55;0.55;;;3.70;99.90;;;;;;5091911;28;20070;-64
2021/03/23 05:13:57;;;;;;;0.70;0.38;;;3.70;99.90;;;;;;5092160;28;20471;-64
2021/03/23 05:16:24;;;;;;;0.90;0.50;;;3.70;99.90;;;;;;5091924;28;20028;-65
2021/03/23 05:18:50;;;;;;;0.30;0.30;;;3.80;99.90;;;;;;5092150;28;20024;-64
2021/03/23 05:21:17;;;;;;;1.05;0.60;;;3.80;99.90;;;;;;5092323;28;20024;-75
2021/03/23 05:23:43;;;;;;;0.55;0.50;;;3.80;99.90;;;;;;5092132;28;20169;-70
2021/03/23 05:26:09;;;;;;;2.78;0.40;;;3.90;99.90;;;;;;5091678;28;20096;-67
2021/03/23 05:28:35;;;;;;;0.93;0.70;;;4.10;99.90;;;;;;5091724;28;20063;-67
2021/03/23 05:31:01;;;;;;;0.88;0.47;;;4.20;99.90;;;;;;5092007;28;20045;-67
2021/03/23 05:33:27;;;;;;;1.17;0.60;;;4.20;99.90;;;;;;5091555;28;20073;-67
2021/03/23 05:35:57;;;;;;;0.45;0.40;;;4.20;99.90;;;;;;5092038;28;20387;-67
2021/03/23 05:38:24;;;;;;;0.73;0.52;;;4.20;99.90;;;;;;5091657;28;20333;-67
2021/03/23 05:40:56;;;;;;;0.60;0.50;;;4.20;99.90;;;;;;5091668;28;20418;-67
2021/03/23 05:43:41;;;;;;;0.40;0.40;;;4.20;99.90;;;;;;5091329;28;20024;-68
2021/03/23 05:46:16;;;;;;;0.43;0.43;;;4.30;99.90;;;;;;5091333;28;20113;-67
2021/03/23 05:48:57;;;;;;;0.43;0.43;;;4.30;99.90;;;;;;5091756;28;20165;-69
2021/03/23 05:51:29;;;;;;;0.75;0.52;;;4.30;99.90;;;;;;5091566;28;20023;-69
2021/03/23 05:54:04;;;;;;;0.50;0.50;;;4.30;99.90;;;;;;5091471;28;20028;-68
2021/03/23 05:56:37;;;;;;;0.50;0.50;;;4.30;99.90;;;;;;5091206;28;20059;-72
2021/03/23 05:59:10;;;;;;;0.40;0.40;;;4.30;99.90;;;;;;5091536;28;20043;-69
2021/03/23 06:01:58;;;;;;;1.00;0.50;;;4.50;99.90;;;;;;5091539;28;20028;-69
2021/03/23 06:04:42;;;;;;;0.60;0.60;;;4.50;99.90;;;;;;5080319;28;20051;-69
2021/03/23 06:07:13;;;;;;;1.15;0.60;;;4.50;99.90;;;;;;5091342;28;20020;-69
2021/03/23 06:09:41;;;;;;;1.63;0.50;;;4.50;99.90;;;;;;5091819;28;20122;-69
2021/03/23 06:12:07;;;;;;;0.50;0.50;;;4.50;99.90;;;;;;5090876;28;20121;-69
2021/03/23 06:14:39;;;;;;;0.55;0.50;;;4.50;99.90;;;;;;5091324;28;20368;-67
2021/03/23 06:17:29;;;;;;;1.15;0.50;;;4.50;99.90;;;;;;5091540;28;20024;-68
2021/03/23 06:20:07;;;;;;;0.50;0.50;;;4.60;99.90;;;;;;5091447;28;20040;-68
2021/03/23 06:22:58;;;;;;;0.50;0.50;;;4.60;99.90;;;;;;5091435;28;20181;-68
2021/03/23 06:25:38;;;;;;;1.52;0.60;;;4.60;99.90;;;;;;5091363;28;20020;-69
2021/03/23 06:28:28;;;;;;;2.30;0.47;;;4.70;99.90;;;;;;5078996;28;20033;-68
2021/03/23 06:31:15;;;;;;;0.68;0.40;;;4.70;99.90;;;;;;5090833;28;20028;-69
2021/03/23 06:33:40;;;;;;;1.73;0.50;;;4.70;99.90;;;;;;5091016;28;20103;-69
2021/03/23 06:36:20;;;;;;;0.50;0.50;;;4.70;99.90;;;;;;5090947;28;20436;-69
2021/03/23 06:38:46;;;;;;;1.00;0.57;;;4.80;99.90;;;;;;5091140;28;20391;-69
2021/03/23 06:41:15;;;;;;;0.40;0.40;;;4.80;99.90;;;;;;5091071;28;20028;-69
2021/03/23 06:43:50;;;;;;;0.43;0.40;;;4.80;99.90;;;;;;5076989;28;20472;-69
2021/03/23 06:46:31;;;;;;;0.38;0.38;;;4.90;99.90;;;;;;5091006;28;20024;-69
2021/03/23 06:49:15;;;;;;;0.50;0.40;;;5.10;99.90;;;;;;5078615;28;20036;-70
2021/03/23 06:51:56;;;;;;;0.50;0.50;;;5.20;99.90;;;;;;5090963;28;20025;-67
2021/03/23 06:54:22;;;;;;;0.75;0.50;;;5.30;99.90;;;;;;5090853;28;20027;-69
2021/03/23 06:56:59;;;;;;;0.98;0.40;;;5.40;99.90;;;;;;5091158;28;20029;-67
2021/03/23 06:59:25;;;;;;;0.47;0.45;;;5.60;99.90;;;;;;5093613;28;20107;-68
2021/03/23 07:01:52;;;;;;;0.40;0.40;;;6.40;99.90;;;;;;5094579;28;20107;-67
2021/03/23 07:04:34;;;;;;;1.15;0.50;;;6.70;99.90;;;;;;5094255;28;20033;-67
2021/03/23 07:07:19;;;;;;;0.50;0.50;;;6.60;99.90;;;;;;5094749;28;20198;-67
2021/03/23 07:10:00;;;;;;;1.00;0.40;;;6.40;99.90;;;;;;5094305;28;20068;-67
2021/03/23 07:12:45;;;;;;;0.63;0.43;;;6.30;99.90;;;;;;5094010;28;20055;-67
2021/03/23 07:15:20;;;;;;;0.70;0.40;;;6.30;99.90;;;;;;5094569;28;20067;-67
2021/03/23 07:17:55;;;;;;;0.98;0.50;;;6.30;99.90;;;;;;5094243;28;20553;-67
2021/03/23 07:20:33;;;;;;;2.83;0.52;;;6.30;99.90;;;;;;5094231;28;20037;-67
2021/03/23 07:23:01;;;;;;;0.95;0.50;;;6.40;99.90;;;;;;5094118;28;20043;-67
2021/03/23 07:25:47;;;;;;;2.70;0.40;;;6.40;99.90;;;;;;5093952;28;20531;-67
2021/03/23 07:28:35;;;;;;;1.00;0.32;;;7.20;99.90;;;;;;5093220;28;20036;-68
2021/03/23 07:31:03;;;;;;;0.40;0.40;;;8.30;96.70;;;;;;5094024;28;20024;-67
2021/03/23 07:34:06;;;;;;;0.40;0.40;;;8.00;96.90;;;;;;5090659;28;20024;-68
2021/03/23 07:36:42;;;;;;;1.00;0.40;;;7.60;96.80;;;;;;5090881;28;20019;-68
2021/03/23 07:39:35;;;;;;;0.65;0.40;;;7.40;98.20;;;;;;5075785;28;20031;-67
2021/03/23 07:42:06;;;;;;;0.30;0.30;;;7.30;98.90;;;;;;5056763;28;20036;-67
2021/03/23 07:44:35;;;;;;;0.50;0.35;;;7.20;99.90;;;;;;5093880;28;20054;-70
2021/03/23 07:47:05;;;;;;;1.58;0.43;;;7.20;99.90;;;;;;5093824;28;20063;-70
2021/03/23 07:49:46;;;;;;;0.30;0.30;;;7.20;99.90;;;;;;5093647;28;20028;-70
2021/03/23 07:52:27;;;;;;;0.38;0.30;;;7.10;99.70;;;;;;5093701;28;20082;-70
2021/03/23 07:54:58;;;;;;;0.52;0.30;;;7.10;99.60;;;;;;5093364;28;20059;-70
2021/03/23 07:57:31;;;;;;;;;;;7.10;99.90;;;;;;5093857;28;20016;-70
2021/03/23 08:00:12;;;;;;;0.32;0.32;;;7.00;99.40;;;;;;5093522;28;19961;-70
2021/03/23 08:02:44;;;;;;;0.40;0.40;;;7.00;99.90;;;;;;5081369;28;20042;-69
2021/03/23 08:05:18;;;;;;;0.22;0.22;;;7.00;99.90;;;;;;5093447;28;20024;-72
2021/03/23 08:07:56;;;;;;;0.30;0.30;;;7.00;99.90;;;;;;5093271;28;20016;-72
2021/03/23 08:10:36;;;;;;;0.32;0.32;;;7.00;99.90;;;;;;5092900;28;20020;-72
2021/03/23 08:13:10;;;;;;;0.38;0.38;;;7.00;99.90;;;;;;5093012;28;20040;-72
2021/03/23 08:15:57;;;;;;;1.17;0.35;;;6.90;99.90;;;;;;5092869;28;20127;-73
2021/03/23 08:18:53;;;;;;;0.30;0.30;;;6.90;99.90;;;;;;5092929;28;20479;-72
2021/03/23 08:21:44;;;;;;;0.38;0.38;;;6.90;99.90;;;;;;5076024;28;20119;-71
2021/03/23 08:24:35;;;;;;;1.20;0.40;;;6.90;99.90;;;;;;5090454;28;20105;-71
2021/03/23 08:27:09;;;;;;;0.40;0.40;;;6.90;99.80;;;;;;5093148;28;20023;-71
2021/03/23 08:29:44;;;;;;;0.20;0.20;;;6.90;99.90;;;;;;5092637;28;20123;-72
2021/03/23 08:32:40;;;;;;;0.40;0.40;;;7.00;99.30;;;;;;5093161;28;20027;-73
2021/03/23 08:35:40;;;;;;;0.30;0.30;;;7.00;99.10;;;;;;5092498;28;20032;-74
2021/03/23 08:38:12;;;;;;;1.23;0.40;;;7.00;99.00;;;;;;5090412;28;20024;-74
2021/03/23 08:40:38;;;;;;;0.65;0.40;;;7.50;99.90;;;;;;5092215;28;20058;-72
2021/03/23 08:43:05;;;;;;;0.40;0.40;;;7.60;98.10;;;;;;5092362;28;20059;-72
2021/03/23 08:45:43;;;;;;;0.63;0.40;;;7.60;97.50;;;;;;5092060;28;20061;-73
2021/03/23 08:48:45;;;;;;;0.40;0.30;;;7.60;97.20;;;;;;5089976;28;20441;-67
2021/03/23 08:51:13;;;;;;;0.30;0.30;;;7.60;97.00;;;;;;5089229;28;20499;-70
2021/03/23 08:53:42;;;;;;;0.22;0.20;;;7.60;96.90;;;;;;5091649;28;20106;-68
2021/03/23 08:56:09;;;;;;;0.40;0.30;;;7.60;96.40;;;;;;5092242;28;20032;-70
2021/03/23 08:58:44;;;;;;;1.08;0.50;;;7.70;96.10;;;;;;5092185;28;20032;-68
2021/03/23 09:01:35;;;;;;;0.40;0.40;;;7.70;95.70;;;;;;5092629;28;20103;-70
2021/03/23 09:04:03;;;;;;;1.10;0.40;;;7.70;95.40;;;;;;5091865;28;20421;-68
2021/03/23 09:06:55;;;;;;;0.60;0.40;;;7.70;95.20;;;;;;5092233;28;20059;-68
2021/03/23 09:09:31;;;;;;;1.30;0.40;;;7.70;94.70;;;;;;5079281;28;20058;-70
2021/03/23 09:12:07;;;;;;;0.60;0.60;;;7.80;94.60;;;;;;5092141;28;20064;-69
2021/03/23 09:15:15;;;;;;;0.30;0.30;;;7.80;94.50;;;;;;5092412;28;20028;-70
2021/03/23 09:18:06;;;;;;;0.90;0.30;;;7.90;94.00;;;;;;5090105;28;20098;-71
2021/03/23 09:20:32;;;;;;;0.57;0.30;;;7.90;93.30;;;;;;5091690;28;20103;-70
2021/03/23 09:23:19;;;;;;;0.45;0.30;;;7.90;93.30;;;;;;5086453;28;20070;-70
2021/03/23 09:25:58;;;;;;;0.40;0.40;;;7.90;92.40;;;;;;5085910;28;20387;-70
2021/03/23 09:28:30;;;;;;;0.52;0.40;;;7.90;92.30;;;;;;5091809;28;20043;-70
2021/03/23 09:31:07;;;;;;;1.60;0.52;;;7.90;91.70;;;;;;5091856;28;20521;-70
2021/03/23 09:33:49;;;;;;;0.95;0.50;;;7.90;91.70;;;;;;5091611;28;20024;-70
2021/03/23 09:36:19;;;;;;;0.30;0.30;;;8.00;91.70;;;;;;5091732;28;20016;-71
2021/03/23 09:39:00;;;;;;;0.30;0.30;;;8.00;91.60;;;;;;5091741;28;20161;-73
2021/03/23 09:41:33;;;;;;;0.40;0.40;;;8.00;90.90;;;;;;5091471;28;20383;-73
2021/03/23 09:44:05;;;;;;;0.40;0.40;;;8.00;90.90;;;;;;5091770;28;20020;-72
2021/03/23 09:46:40;;;;;;;0.95;0.40;;;8.00;90.40;;;;;;5091622;28;20024;-72
2021/03/23 09:49:11;;;;;;;0.85;0.40;;;8.00;90.40;;;;;;5091591;28;20032;-73
2021/03/23 09:51:49;;;;;;;0.30;0.30;;;8.00;90.00;;;;;;5089993;28;20039;-73
2021/03/23 09:54:27;;;;;;;0.50;0.45;;;8.30;94.40;;;;;;5080792;28;20024;-70
2021/03/23 09:56:57;;;;;;;0.73;0.40;;;8.50;88.00;;;;;;5091572;28;20076;-69
2021/03/23 09:59:32;;;;;;;1.30;0.45;;;8.40;87.80;;;;;;5090474;28;20032;-68
2021/03/23 10:01:59;;;;;;;4.72;0.50;;;8.40;87.50;;;;;;5090628;28;20487;-68
2021/03/23 10:04:38;;;;;;;0.70;0.40;;;8.30;87.30;;;;;;5090562;28;20028;-67
2021/03/23 10:07:07;;;;;;;0.63;0.40;;;8.30;87.20;;;;;;5090041;28;20055;-67
2021/03/23 10:09:36;;;;;;;2.05;0.40;;;8.30;86.60;;;;;;5090625;28;20055;-66
2021/03/23 10:12:04;;;;;;;1.10;0.47;;;8.30;86.30;;;;;;5087505;28;20051;-66
2021/03/23 10:14:35;;;;;;;0.32;0.32;;;8.30;85.30;;;;;;5088244;28;20028;-67
2021/03/23 10:17:25;;;;;;;0.73;0.40;;;8.30;85.60;;;;;;5091225;28;20047;-67
2021/03/23 10:19:59;;;;;;;0.43;0.40;;;8.30;84.90;;;;;;5063455;28;20218;-66
2021/03/23 10:22:27;;;;;;;0.77;0.40;;;8.30;85.00;;;;;;5090963;28;20491;-66
2021/03/23 10:24:54;;;;;;;0.60;0.40;;;8.30;84.80;;;;;;5090786;28;20590;-66
2021/03/23 10:27:32;;;;;;;2.00;0.70;;;8.30;84.50;;;;;;5091236;28;20149;-66
2021/03/23 10:30:05;;;;;;;0.93;0.50;;;8.40;84.70;;;;;;5091608;28;20112;-66
2021/03/23 10:32:43;;;;;;;1.00;0.57;;;8.40;83.70;;;;;;5087411;28;20024;-66
2021/03/23 10:35:28;;;;;;;1.55;0.60;;;8.40;84.10;;;;;;5095336;28;20150;-66
2021/03/23 10:38:12;;;;;;;1.45;0.50;;;8.40;83.80;;;;;;5081324;28;20035;-67
2021/03/23 10:40:38;;;;;;;0.90;0.40;;;8.50;83.00;;;;;;5094719;28;20392;-67
2021/03/23 10:43:05;;;;;;;1.73;0.75;;;8.50;83.00;;;;;;5094780;28;20445;-70
2021/03/23 10:45:44;;;;;;;0.43;0.40;;;8.50;82.30;;;;;;5094955;28;20020;-70
2021/03/23 10:48:32;;;;;;;1.33;0.50;;;8.50;81.40;;;;;;5094793;28;20024;-69
2021/03/23 10:51:16;;;;;;;1.15;0.57;;;8.50;81.10;;;;;;5093793;28;20020;-69
2021/03/23 10:54:04;;;;;;;1.40;0.60;;;8.50;81.50;;;;;;5090552;28;20027;-68
2021/03/23 10:56:33;;;;;;;1.80;0.73;;;8.40;80.60;;;;;;5093916;28;20027;-70
2021/03/23 10:59:06;;;;;;;1.58;0.65;;;8.50;81.20;;;;;;5093505;28;20020;-70
2021/03/23 11:01:31;;;;;;;4.38;0.70;;;8.40;81.00;;;;;;5094760;28;20442;-70
2021/03/23 11:04:11;;;;;;;0.93;0.50;;;8.40;81.00;;;;;;5076318;28;20095;-70
2021/03/23 11:06:37;;;;;;;1.35;0.68;;;8.50;80.60;;;;;;5093948;28;20111;-67
2021/03/23 11:09:07;;;;;;;3.83;0.50;;;8.50;80.50;;;;;;5094275;28;20064;-69
2021/03/23 11:11:37;;;;;;;3.83;0.80;;;8.60;84.10;;;;;;5093668;28;20044;-69
2021/03/23 11:14:03;;;;;;;1.13;0.65;;;8.90;85.40;;;;;;5093997;28;20483;-69
2021/03/23 11:16:35;;;;;;;1.80;0.45;;;9.40;83.00;;;;;;5094110;28;20625;-68
2021/03/23 11:19:01;;;;;;;1.33;0.73;;;9.20;77.50;;;;;;5094536;28;20051;-68
2021/03/23 11:21:33;;;;;;;3.90;0.70;;;9.00;78.20;;;;;;5093827;28;20024;-69
2021/03/23 11:23:59;;;;;;;1.92;0.50;;;8.80;78.70;;;;;;5090220;28;20046;-69
2021/03/23 11:26:27;;;;;;;0.75;0.45;;;8.80;78.70;;;;;;5094354;28;20586;-69
2021/03/23 11:28:56;;;;;;;6.72;0.95;;;8.70;79.10;;;;;;5094100;28;20035;-69
2021/03/23 11:31:26;;;;;;;0.80;0.45;;;8.70;79.40;;;;;;5109829;28;20028;-69
2021/03/23 11:33:52;;;;;;;1.48;0.70;;;8.70;78.80;;;;;;5094300;28;20020;-69
2021/03/23 11:36:20;;;;;;;2.47;0.50;;;8.80;78.80;;;;;;5094125;28;20028;-69
2021/03/23 11:38:46;;;;;;;3.10;0.60;;;8.80;78.70;;;;;;5093718;28;20059;-70
2021/03/23 11:41:28;;;;;;;1.77;0.68;;;8.90;78.60;;;;;;5093771;28;20111;-69
2021/03/23 11:44:04;;;;;;;1.38;0.70;;;9.00;77.30;;;;;;5081483;28;20016;-69
2021/03/23 11:46:40;;;;;;;1.63;0.50;;;9.00;77.20;;;;;;5093600;28;20106;-69
2021/03/23 11:49:12;;;;;;;0.38;0.38;;;9.00;76.20;;;;;;5093835;28;20412;-69
2021/03/23 11:51:44;;;;;;;2.05;0.60;;;9.10;75.60;;;;;;5093538;28;20425;-70
2021/03/23 11:54:11;;;;;;;1.20;0.40;;;9.10;75.30;;;;;;5093599;28;20029;-69
2021/03/23 11:56:37;;;;;;;1.00;0.50;;;9.10;74.70;;;;;;5093764;28;20054;-69
2021/03/23 11:59:03;;;;;;;1.17;0.38;;;9.20;74.50;;;;;;5093630;28;20053;-69
2021/03/23 12:01:29;;;;;;;2.00;0.60;;;9.20;73.80;;;;;;5093541;28;20027;-69
2021/03/23 12:03:55;;;;;;;1.42;0.50;;;9.20;73.80;;;;;;5093903;28;20028;-69
2021/03/23 12:06:35;;;;;;;4.47;0.50;;;9.30;73.60;;;;;;5093537;28;20069;-69
2021/03/23 12:09:04;;;;;;;;;;;9.30;73.30;;;;;;5093969;28;20036;-70
2021/03/23 12:11:48;;;;;;;1.52;0.40;;;9.30;72.50;;;;;;5093126;28;19912;-70
2021/03/23 12:14:19;;;;;;;0.63;0.35;;;9.30;73.00;;;;;;5093133;28;20031;-70
2021/03/23 12:17:11;;;;;;;1.05;0.40;;;9.30;73.00;;;;;;5093382;28;20047;-69
2021/03/23 12:19:41;;;;;;;0.35;0.35;;;9.30;72.60;;;;;;5093164;28;20440;-69
2021/03/23 12:22:09;;;;;;;0.93;0.40;;;9.30;72.80;;;;;;5093050;28;20475;-69
2021/03/23 12:24:36;;;;;;;4.82;0.50;;;9.30;72.80;;;;;;5093036;28;20150;-69
2021/03/23 12:27:03;;;;;;;2.13;0.70;;;9.30;72.50;;;;;;5093476;28;20052;-69
2021/03/23 12:29:29;;;;;;;1.23;0.80;;;9.30;72.50;;;;;;5092782;28;20422;-70
2021/03/23 12:31:54;;;;;;;1.80;0.60;;;9.40;71.90;;;;;;5093253;28;20027;-69
2021/03/23 12:34:20;;;;;;;3.10;0.40;;;9.40;71.60;;;;;;5092717;28;20024;-69
2021/03/23 12:36:46;;;;;;;2.22;0.60;;;9.40;71.40;;;;;;5092893;28;20020;-70
2021/03/23 12:39:16;;;;;;;0.30;0.30;;;9.40;71.10;;;;;;5092666;28;20107;-70
2021/03/23 12:41:42;;;;;;;0.83;0.47;;;9.40;71.10;;;;;;5092542;28;20035;-70
2021/03/23 12:44:07;;;;;;;0.50;0.50;;;9.40;70.40;;;;;;5092605;28;20100;-69
2021/03/23 12:46:34;;;;;;;1.63;0.40;;;9.40;70.20;;;;;;5092737;28;20024;-69
2021/03/23 12:49:01;;;;;;;0.57;0.40;;;9.40;69.30;;;;;;5092543;28;20114;-69
2021/03/23 12:51:33;;;;;;;0.40;0.40;;;9.40;69.30;;;;;;5092863;28;20035;-69
2021/03/23 12:53:59;;;;;;;2.05;0.50;;;9.50;69.50;;;;;;5074242;28;20103;-69
2021/03/23 12:56:25;;;;;;;2.70;0.75;;;9.40;69.10;;;;;;5091578;28;20119;-69
2021/03/23 12:58:51;;;;;;;3.10;0.70;;;9.50;67.80;;;;;;5092108;28;20028;-69
2021/03/23 13:01:18;;;;;;;0.90;0.50;;;9.50;67.50;;;;;;5092455;28;20052;-69
2021/03/23 13:03:44;;;;;;;3.35;0.60;;;9.40;66.50;;;;;;5092334;28;20028;-70
2021/03/23 13:06:15;;;;;;;2.25;0.50;;;9.50;65.60;;;;;;5092288;28;20517;-70
2021/03/23 13:08:41;;;;;;;3.40;1.35;;;9.50;65.10;;;;;;5092102;28;20068;-69
2021/03/23 13:11:17;;;;;;;0.43;0.40;;;9.50;64.10;;;;;;5091875;28;20030;-70
2021/03/23 13:13:50;;;;;;;4.32;0.60;;;9.40;63.60;;;;;;5091751;28;20491;-70
2021/03/23 13:16:17;;;;;;;2.00;0.52;;;9.40;64.20;;;;;;5092155;28;20043;-69
2021/03/23 13:18:43;;;;;;;0.68;0.50;;;9.40;64.10;;;;;;5092152;28;20418;-69
2021/03/23 13:21:15;;;;;;;2.13;0.70;;;9.40;64.10;;;;;;5092051;28;20051;-69
2021/03/23 13:23:50;;;;;;;1.50;0.90;;;9.40;63.90;;;;;;5092144;28;20035;-69
2021/03/23 13:26:16;;;;;;;1.27;0.63;;;9.40;63.90;;;;;;5092307;28;20020;-69
2021/03/23 13:28:54;;;;;;;0.88;0.57;;;9.40;64.00;;;;;;5091718;28;20036;-69
2021/03/23 13:31:22;;;;;;;0.90;0.68;;;9.40;64.70;;;;;;5092142;28;20024;-69
2021/03/23 13:33:49;;;;;;;0.88;0.60;;;9.40;64.70;;;;;;5091723;28;20028;-70
2021/03/23 13:36:37;;;;;;;0.57;0.40;;;9.40;64.40;;;;;;5091705;28;20035;-70
2021/03/23 13:39:09;;;;;;;1.30;0.60;;;9.40;64.50;;;;;;5091790;28;20039;-70
2021/03/23 13:41:35;;;;;;;4.63;0.65;;;9.40;64.90;;;;;;5091608;28;20032;-70
2021/03/23 13:44:22;;;;;;;0.95;0.45;;;9.40;64.70;;;;;;5091991;28;20020;-69
2021/03/23 13:46:50;;;;;;;1.85;0.50;;;9.40;65.00;;;;;;5091463;28;20078;-70
2021/03/23 13:49:16;;;;;;;0.95;0.57;;;9.40;64.80;;;;;;5092037;28;20036;-69
2021/03/23 13:51:43;;;;;;;2.38;0.60;;;9.40;64.60;;;;;;5090844;28;20037;-69
2021/03/23 13:54:10;;;;;;;2.90;0.82;;;9.40;65.60;;;;;;5091421;28;20032;-70
2021/03/23 13:56:37;;;;;;;3.03;0.90;;;9.50;66.40;;;;;;5091614;28;20028;-69
2021/03/23 13:59:02;;;;;;;3.78;0.82;;;9.50;66.20;;;;;;5092243;28;20084;-68
2021/03/23 14:01:28;;;;;;;3.00;0.75;;;9.50;65.70;;;;;;5091130;28;20032;-67
2021/03/23 14:03:54;;;;;;;1.45;0.70;;;9.40;65.50;;;;;;5091329;28;20484;-68
2021/03/23 14:06:23;;;;;;;1.23;0.65;;;9.40;65.70;;;;;;5091809;28;20479;-67
2021/03/23 14:08:50;;;;;;;1.13;0.57;;;9.40;65.40;;;;;;5094718;28;20043;-65
2021/03/23 14:11:18;;;;;;;2.30;0.80;;;9.40;65.50;;;;;;5094946;28;20027;-65
2021/03/23 14:13:44;;;;;;;1.38;0.70;;;9.40;65.60;;;;;;5096047;28;20051;-65
2021/03/23 14:16:10;;;;;;;3.58;0.65;;;9.30;65.70;;;;;;5077711;28;20047;-65
2021/03/23 14:18:36;;;;;;;4.18;1.10;;;9.30;65.60;;;;;;5096133;28;20491;-65
2021/03/23 14:21:03;;;;;;;1.02;0.50;;;9.30;65.60;;;;;;5095708;28;20035;-65
2021/03/23 14:23:48;;;;;;;2.25;0.60;;;9.30;65.50;;;;;;5077071;28;20021;-65
2021/03/23 14:26:14;;;;;;;2.95;0.60;;;10.30;76.70;;;;;;5095810;28;20020;-66
2021/03/23 14:28:49;;;;;;;2.15;0.60;;;10.60;66.00;;;;;;5095969;28;20047;-65
2021/03/23 14:31:16;;;;;;;2.22;0.60;;;10.20;64.10;;;;;;5095618;28;20045;-66
2021/03/23 14:33:41;;;;;;;2.65;0.95;;;9.90;64.60;;;;;;5094984;28;20110;-66
2021/03/23 14:36:08;;;;;;;1.55;0.88;;;9.80;65.10;;;;;;5092636;28;20107;-67
2021/03/23 14:38:36;;;;;;;1.20;0.60;;;9.60;65.10;;;;;;5095453;28;20035;-67
2021/03/23 14:41:03;;;;;;;2.00;0.50;;;9.50;65.40;;;;;;5095453;28;20023;-70
2021/03/23 14:43:30;;;;;;;3.00;1.02;;;9.50;65.90;;;;;;5094965;28;20081;-68
2021/03/23 14:45:56;;;;;;;1.08;0.63;;;9.40;66.10;;;;;;5094994;28;20027;-68
2021/03/23 14:48:25;;;;;;;1.90;0.90;;;9.40;65.80;;;;;;5094787;28;20020;-67
2021/03/23 14:50:53;;;;;;;0.75;0.40;;;9.50;68.20;;;;;;5094473;28;20020;-68
2021/03/23 14:53:20;;;;;;;3.72;0.82;;;9.50;66.00;;;;;;5094871;28;20021;-68
2021/03/23 14:55:46;;;;;;;1.88;0.82;;;9.40;66.10;;;;;;5091852;28;20061;-69
2021/03/23 14:58:13;;;;;;;2.08;0.70;;;9.40;66.70;;;;;;5076544;28;20020;-69
2021/03/23 15:00:41;;;;;;;1.52;0.50;;;9.40;66.90;;;;;;5094770;28;20095;-70
2021/03/23 15:03:12;;;;;;;4.60;1.88;;;9.40;67.10;;;;;;5091951;28;20134;-69
2021/03/23 15:05:38;;;;;;;1.02;0.50;;;9.30;67.00;;;;;;5094427;28;20051;-67
2021/03/23 15:08:07;;;;;;;1.15;0.50;;;9.90;76.80;;;;;;5094685;28;20047;-68
2021/03/23 15:10:39;;;;;;;0.75;0.40;;;11.00;79.20;;;;;;5094209;28;20028;-69
2021/03/23 15:13:06;;;;;;;2.30;0.80;;;12.70;75.10;;;;;;5094314;28;20036;-67
2021/03/23 15:15:33;;;;;;;1.67;0.70;;;13.00;67.80;;;;;;5094431;28;20019;-67
2021/03/23 15:17:59;;;;;;;3.72;0.68;;;12.10;61.80;;;;;;5094253;28;20012;-67
2021/03/23 15:20:27;;;;;;;1.23;0.65;;;11.30;62.40;;;;;;5093806;28;20077;-67
2021/03/23 15:22:54;;;;;;;1.23;0.70;;;10.80;63.90;;;;;;5094479;28;20016;-67
2021/03/23 15:25:26;;;;;;;1.42;0.50;;;10.50;64.50;;;;;;5094198;28;20387;-67
2021/03/23 15:27:51;;;;;;;2.42;0.52;;;10.20;65.30;;;;;;5092251;28;20384;-66
2021/03/23 15:30:22;;;;;;;1.55;0.50;;;10.00;66.30;;;;;;5075904;28;20038;-67
2021/03/23 15:32:48;;;;;;;1.27;0.52;;;9.90;66.60;;;;;;5094000;28;20357;-67
2021/03/23 15:35:16;;;;;;;1.75;0.47;;;9.80;66.60;;;;;;5094550;28;20070;-67
2021/03/23 15:37:42;;;;;;;0.30;0.30;;;9.80;68.10;;;;;;5093219;28;20016;-68
2021/03/23 15:40:13;;;;;;;0.60;0.32;;;9.70;67.20;;;;;;5093933;28;20016;-67
2021/03/23 15:42:39;;;;;;;0.93;0.47;;;9.60;67.60;;;;;;5093783;28;20375;-67
2021/03/23 15:45:31;;;;;;;1.65;0.52;;;9.50;68.00;;;;;;5093667;28;20491;-68
2021/03/23 15:47:57;;;;;;;0.55;0.40;;;9.40;68.50;;;;;;5090234;28;20036;-68
2021/03/23 15:50:26;;;;;;;1.05;0.40;;;9.40;68.60;;;;;;5093806;28;20031;-67
2021/03/23 15:52:53;;;;;;;1.13;0.50;;;9.40;69.10;;;;;;5093422;28;20027;-67
2021/03/23 15:55:24;;;;;;;1.65;0.50;;;9.40;69.30;;;;;;5093081;28;20118;-67
2021/03/23 15:57:50;;;;;;;0.60;0.40;;;9.40;69.50;;;;;;5092862;28;20020;-69
2021/03/23 16:00:17;;;;;;;3.10;0.63;;;9.30;69.40;;;;;;5093580;28;20023;-68
2021/03/23 16:02:43;;;;;;;6.38;0.65;;;9.30;70.10;;;;;;5093293;28;20024;-69
2021/03/23 16:05:09;;;;;;;2.72;0.60;;;9.30;70.40;;;;;;5093539;28;20495;-67
2021/03/23 16:07:36;;;;;;;0.90;0.40;;;9.30;70.10;;;;;;5075737;28;20044;-67
2021/03/23 16:10:05;;;;;;;1.33;0.60;;;9.30;70.10;;;;;;5093364;28;20387;-68
2021/03/23 16:12:31;;;;;;;1.75;0.57;;;9.30;70.40;;;;;;5093310;28;20036;-68
2021/03/23 16:14:56;;;;;;;1.45;0.50;;;9.30;70.50;;;;;;5093280;28;20024;-68
2021/03/23 16:17:22;;;;;;;0.40;0.40;;;9.20;70.60;;;;;;5093144;28;20412;-71
2021/03/23 16:19:48;;;;;;;1.10;0.43;;;9.20;71.00;;;;;;5093377;28;20480;-72
2021/03/23 16:22:15;;;;;;;1.25;0.40;;;9.10;71.00;;;;;;5093621;28;20024;-71
2021/03/23 16:24:41;;;;;;;0.90;0.40;;;9.00;71.30;;;;;;5093439;28;20035;-73
2021/03/23 16:27:07;;;;;;;3.05;0.70;;;8.90;71.70;;;;;;5093758;28;20024;-68
2021/03/23 16:29:33;;;;;;;1.65;0.80;;;8.90;72.10;;;;;;5093626;28;20074;-70
2021/03/23 16:31:58;;;;;;;0.57;0.47;;;8.90;72.20;;;;;;5092212;28;20056;-69
2021/03/23 16:34:27;;;;;;;0.70;0.50;;;9.30;77.70;;;;;;5093287;28;20028;-69
2021/03/23 16:36:54;;;;;;;1.02;0.40;;;9.40;73.40;;;;;;5093214;28;20506;-69
2021/03/23 16:39:21;;;;;;;0.73;0.50;;;9.30;72.60;;;;;;5093602;28;20070;-69
2021/03/23 16:41:50;;;;;;;1.20;0.60;;;9.10;72.50;;;;;;5093020;28;20028;-69
2021/03/23 16:44:22;;;;;;;3.35;0.70;;;9.00;72.60;;;;;;5093191;28;20110;-69
2021/03/23 16:46:48;;;;;;;1.83;0.75;;;8.90;73.00;;;;;;5092975;28;20379;-70
2021/03/23 16:49:14;;;;;;;0.98;0.52;;;8.80;73.30;;;;;;5092954;28;20024;-69
2021/03/23 16:51:43;;;;;;;0.50;0.50;;;8.70;73.70;;;;;;5093228;28;20035;-70
2021/03/23 16:54:13;;;;;;;3.87;0.80;;;8.70;74.20;;;;;;5092863;28;20020;-69
2021/03/23 16:56:39;;;;;;;0.65;0.47;;;8.60;74.70;;;;;;5093310;28;20254;-69
2021/03/23 16:59:05;;;;;;;0.52;0.40;;;8.60;75.00;;;;;;5092908;28;20662;-69
2021/03/23 17:01:31;;;;;;;0.52;0.52;;;8.60;75.40;;;;;;5093074;28;20107;-69
2021/03/23 17:03:57;;;;;;;0.52;0.50;;;8.50;75.50;;;;;;5092417;28;20023;-68
2021/03/23 17:06:25;;;;;;;0.85;0.50;;;8.50;75.70;;;;;;5093001;28;20039;-69
2021/03/23 17:08:51;;;;;;;0.45;0.45;;;8.50;76.00;;;;;;5092506;28;20098;-69
2021/03/23 17:11:18;;;;;;;0.40;0.40;;;8.40;76.10;;;;;;5092467;28;20024;-69
2021/03/23 17:13:44;;;;;;;0.40;0.40;;;8.40;76.20;;;;;;5092574;28;20040;-69
2021/03/23 17:16:10;;;;;;;1.40;0.50;;;8.40;76.30;;;;;;5092849;28;20038;-69
2021/03/23 17:18:36;;;;;;;0.52;0.40;;;8.80;83.10;;;;;;5092592;28;20020;-69
2021/03/23 17:21:02;;;;;;;2.58;1.05;;;9.00;79.30;;;;;;5092321;28;20164;-69
2021/03/23 17:23:28;;;;;;;2.20;1.40;;;8.80;77.30;;;;;;5092556;28;20028;-69
2021/03/23 17:25:54;;;;;;;2.05;1.20;;;8.80;77.10;;;;;;5092374;28;20020;-69
2021/03/23 17:28:22;;;;;;;1.15;1.00;;;8.70;76.80;;;;;;5092375;28;20108;-70
2021/03/23 17:30:48;;;;;;;1.10;0.90;;;8.60;76.80;;;;;;5092166;28;20480;-71
2021/03/23 17:33:24;;;;;;;1.10;0.80;;;8.50;76.90;;;;;;5092526;28;20498;-70